KFNT/FNT METAR and TAF weather

Enter ICAO airport designator
Station Type Date Time Source
KFNT METAR 2020/10/20 17:53 UTC NOAA

KFNT 201753Z 10007KT 10SM OVC032 10/03 A3029 RMK AO2 SLP263 T01000028 10106 20033 58008 $


Station Type Date Time Source
KFNT Decoded METAR 2020/10/20 17:53 UTC NOAA

FLINT BISHOP INTERNATIONAL AIRPORT, MI, United States (KFNT) 42-58N 83-45W 233M
Oct 20, 2020 - 01:53 PM EDT / 2020.10.20 1753 UTC
Wind: from the E (100 degrees) at 8 MPH (7 KT):0
Visibility: 10 mile(s):0
Sky conditions: overcast
Temperature: 50.0 F (10.0 C)
Dew Point: 37.0 F (2.8 C)
Relative Humidity: 60%
Pressure (altimeter): 30.29 in. Hg (1025 hPa)
Pressure tendency: 0.02 inches (0.8 hPa) lower than three hours ago
ob: KFNT 201753Z 10007KT 10SM OVC032 10/03 A3029 RMK AO2 SLP263 T01000028 10106 20033 58008
cycle: 18

Station Type Date Time Source
KFNT TAF 2020/10/20 18:52 UTC NOAA

TAF KFNT 201750Z 2018/2118 36005KT P6SM SCT030 BKN200
FM201900 09009KT P6SM SCT040 BKN150
FM210300 11007KT P6SM -SHRA SCT012 OVC028
FM210500 14006KT 4SM -DZ BR SCT004 OVC006
FM210900 23010KT 4SM -DZ BR SCT005 BKN008
FM211300 27012G22KT P6SM SCT015 SCT150

Example: see airport list